Lens, Belgium
Current Conditions -  °F | °C
As of 1:04 PM on Thursday 27 Nov 2014 (Local Time) from EBCV Reporting Station
Broken Clouds Broken Clouds  
Wind Chill: 10°   Ceiling: 4000
Heat Index: 10°   Visibility: 4mi
Dew Point:   Wind: 5mph
Humidity: 94%   Direction: 130°SE
Pressure: 29.68"   Gusts: NA
Location:  50.56°N, 3.9°E
Report Text: EBCV 271204Z AUTO 13004KT 6000 FEW023/// SCT029/// BKN040/// 10/09 Q1005 WHT
Loading
Personal Weather Stations






























Interactive Weather Map New forecast layout! Learn more

10-Day Weather Forecast

Advertisements
Track Severe Weather on mobile